sensor_id;sensor_type;location;lat;lon;timestamp;pressure;altitude;pressure_sealevel;temperature;humidity
61906;BME280;47863;55.766;37.672;2023-05-23T00:01:14;100293.00;;;13.45;66.80
61906;BME280;47863;55.766;37.672;2023-05-23T00:03:41;100279.88;;;13.42;66.86
61906;BME280;47863;55.766;37.672;2023-05-23T00:06:07;100268.75;;;13.28;66.81
61906;BME280;47863;55.766;37.672;2023-05-23T00:08:33;100265.38;;;13.26;66.93
61906;BME280;47863;55.766;37.672;2023-05-23T00:10:59;100274.81;;;13.31;67.09
61906;BME280;47863;55.766;37.672;2023-05-23T00:13:24;100286.22;;;13.24;67.26
61906;BME280;47863;55.766;37.672;2023-05-23T00:15:51;100275.47;;;13.16;67.40
61906;BME280;47863;55.766;37.672;2023-05-23T00:18:17;100287.91;;;13.25;67.49
61906;BME280;47863;55.766;37.672;2023-05-23T00:20:44;100280.84;;;13.24;67.25
61906;BME280;47863;55.766;37.672;2023-05-23T00:23:11;100290.59;;;13.17;67.38
61906;BME280;47863;55.766;37.672;2023-05-23T00:25:44;100285.22;;;13.17;67.38
61906;BME280;47863;55.766;37.672;2023-05-23T00:28:13;100286.22;;;13.16;67.54
61906;BME280;47863;55.766;37.672;2023-05-23T00:30:39;100281.19;;;13.13;67.57
61906;BME280;47863;55.766;37.672;2023-05-23T00:33:04;100286.72;;;13.12;67.70
61906;BME280;47863;55.766;37.672;2023-05-23T00:35:30;100280.16;;;13.06;67.94
61906;BME280;47863;55.766;37.672;2023-05-23T00:37:56;100280.97;;;13.06;67.80
61906;BME280;47863;55.766;37.672;2023-05-23T00:40:22;100284.19;;;13.02;68.01
61906;BME280;47863;55.766;37.672;2023-05-23T00:42:48;100296.28;;;13.06;68.10
61906;BME280;47863;55.766;37.672;2023-05-23T00:45:14;100263.34;;;12.96;68.00
61906;BME280;47863;55.766;37.672;2023-05-23T00:47:40;100280.47;;;13.03;68.00
61906;BME280;47863;55.766;37.672;2023-05-23T00:50:15;100284.84;;;13.04;68.43
61906;BME280;47863;55.766;37.672;2023-05-23T00:52:43;100255.25;;;12.87;68.14
61906;BME280;47863;55.766;37.672;2023-05-23T00:55:11;100266.34;;;12.93;68.08
61906;BME280;47863;55.766;37.672;2023-05-23T00:57:37;100277.78;;;13.03;68.04
61906;BME280;47863;55.766;37.672;2023-05-23T01:00:11;100241.28;;;12.76;68.27
61906;BME280;47863;55.766;37.672;2023-05-23T01:02:45;100285.16;;;13.01;68.58
61906;BME280;47863;55.766;37.672;2023-05-23T01:05:14;100274.41;;;13.01;68.38
61906;BME280;47863;55.766;37.672;2023-05-23T01:07:48;100256.41;;;12.85;68.52
61906;BME280;47863;55.766;37.672;2023-05-23T01:10:17;100264.66;;;12.92;68.37
61906;BME280;47863;55.766;37.672;2023-05-23T01:15:41;100278.13;;;13.00;68.35
61906;BME280;47863;55.766;37.672;2023-05-23T01:18:16;100269.03;;;13.01;68.50
61906;BME280;47863;55.766;37.672;2023-05-23T01:20:54;100262.81;;;13.00;68.02
61906;BME280;47863;55.766;37.672;2023-05-23T01:26:17;100273.06;;;12.97;68.30
61906;BME280;47863;55.766;37.672;2023-05-23T01:28:49;100270.53;;;12.95;67.87
61906;BME280;47863;55.766;37.672;2023-05-23T01:31:17;100269.69;;;12.95;68.16
61906;BME280;47863;55.766;37.672;2023-05-23T01:33:43;100262.28;;;12.88;68.13
61906;BME280;47863;55.766;37.672;2023-05-23T01:36:12;100272.06;;;12.89;68.60
61906;BME280;47863;55.766;37.672;2023-05-23T01:38:38;100288.88;;;12.92;68.58
61906;BME280;47863;55.766;37.672;2023-05-23T01:41:04;100278.44;;;12.88;69.30
61906;BME280;47863;55.766;37.672;2023-05-23T01:43:29;100274.22;;;12.86;69.07
61906;BME280;47863;55.766;37.672;2023-05-23T01:45:56;100256.22;;;12.78;69.14
61906;BME280;47863;55.766;37.672;2023-05-23T01:48:23;100258.25;;;12.84;69.23
61906;BME280;47863;55.766;37.672;2023-05-23T01:50:51;100242.13;;;12.76;68.93
61906;BME280;47863;55.766;37.672;2023-05-23T01:53:19;100253.19;;;12.81;68.91
61906;BME280;47863;55.766;37.672;2023-05-23T01:55:45;100263.13;;;12.89;69.28
61906;BME280;47863;55.766;37.672;2023-05-23T01:58:12;100248.16;;;12.78;69.15
61906;BME280;47863;55.766;37.672;2023-05-23T02:00:37;100254.06;;;12.90;69.41
61906;BME280;47863;55.766;37.672;2023-05-23T02:03:03;100241.81;;;12.87;69.16
61906;BME280;47863;55.766;37.672;2023-05-23T02:05:30;100268.38;;;13.07;69.27
61906;BME280;47863;55.766;37.672;2023-05-23T02:07:55;100255.63;;;13.17;69.05
61906;BME280;47863;55.766;37.672;2023-05-23T02:10:21;100249.78;;;13.30;68.92
61906;BME280;47863;55.766;37.672;2023-05-23T02:12:47;100262.56;;;13.36;68.80
61906;BME280;47863;55.766;37.672;2023-05-23T02:15:13;100267.25;;;13.42;68.54
61906;BME280;47863;55.766;37.672;2023-05-23T02:17:38;100252.13;;;13.41;68.53
61906;BME280;47863;55.766;37.672;2023-05-23T02:20:06;100244.38;;;13.38;68.71
61906;BME280;47863;55.766;37.672;2023-05-23T02:22:33;100255.34;;;13.53;68.41
61906;BME280;47863;55.766;37.672;2023-05-23T02:24:58;100244.22;;;13.48;68.51
61906;BME280;47863;55.766;37.672;2023-05-23T02:27:24;100254.31;;;13.54;68.77
61906;BME280;47863;55.766;37.672;2023-05-23T02:29:49;100248.09;;;13.54;68.76
61906;BME280;47863;55.766;37.672;2023-05-23T02:32:15;100244.56;;;13.53;68.81
61906;BME280;47863;55.766;37.672;2023-05-23T02:34:40;100257.19;;;13.53;68.48
61906;BME280;47863;55.766;37.672;2023-05-23T02:37:06;100256.31;;;13.52;68.73
61906;BME280;47863;55.766;37.672;2023-05-23T02:39:35;100248.09;;;13.54;68.83
61906;BME280;47863;55.766;37.672;2023-05-23T02:42:01;100254.97;;;13.56;68.62
61906;BME280;47863;55.766;37.672;2023-05-23T02:44:27;100254.28;;;13.62;68.55
61906;BME280;47863;55.766;37.672;2023-05-23T02:46:52;100226.41;;;13.47;68.63
61906;BME280;47863;55.766;37.672;2023-05-23T02:49:18;100257.16;;;13.69;68.44
61906;BME280;47863;55.766;37.672;2023-05-23T02:51:44;100194.09;;;13.31;68.48
61906;BME280;47863;55.766;37.672;2023-05-23T02:54:09;100259.34;;;13.74;68.66
61906;BME280;47863;55.766;37.672;2023-05-23T02:56:35;100225.91;;;13.52;68.66
61906;BME280;47863;55.766;37.672;2023-05-23T02:59:00;100258.16;;;13.76;68.56
61906;BME280;47863;55.766;37.672;2023-05-23T03:01:26;100252.59;;;13.78;68.57
61906;BME280;47863;55.766;37.672;2023-05-23T03:03:52;100262.22;;;13.80;68.34
61906;BME280;47863;55.766;37.672;2023-05-23T03:06:17;100268.06;;;13.84;68.35
61906;BME280;47863;55.766;37.672;2023-05-23T03:08:43;100275.97;;;13.94;68.24
61906;BME280;47863;55.766;37.672;2023-05-23T03:11:09;100248.53;;;13.90;68.12
61906;BME280;47863;55.766;37.672;2023-05-23T03:13:35;100275.75;;;14.20;67.89
61906;BME280;47863;55.766;37.672;2023-05-23T03:16:01;100267.94;;;14.33;67.50
61906;BME280;47863;55.766;37.672;2023-05-23T03:18:27;100256.81;;;14.44;67.29
61906;BME280;47863;55.766;37.672;2023-05-23T03:20:52;100258.06;;;14.65;67.08
61906;BME280;47863;55.766;37.672;2023-05-23T03:23:18;100258.19;;;14.80;66.98
61906;BME280;47863;55.766;37.672;2023-05-23T03:25:44;100255.19;;;14.98;66.79
61906;BME280;47863;55.766;37.672;2023-05-23T03:28:10;100264.22;;;15.13;66.39
61906;BME280;47863;55.766;37.672;2023-05-23T03:30:39;100205.66;;;14.99;66.36
61906;BME280;47863;55.766;37.672;2023-05-23T03:33:04;100248.97;;;15.43;65.96
61906;BME280;47863;55.766;37.672;2023-05-23T03:35:31;100248.47;;;15.63;65.75
61906;BME280;47863;55.766;37.672;2023-05-23T03:37:56;100245.44;;;15.81;65.35
61906;BME280;47863;55.766;37.672;2023-05-23T03:40:22;100253.59;;;15.96;65.20
61906;BME280;47863;55.766;37.672;2023-05-23T03:42:48;100246.50;;;16.10;65.01
61906;BME280;47863;55.766;37.672;2023-05-23T03:45:25;100225.34;;;16.13;64.62
61906;BME280;47863;55.766;37.672;2023-05-23T03:47:51;100241.63;;;16.35;64.44
61906;BME280;47863;55.766;37.672;2023-05-23T03:50:16;100249.09;;;16.48;64.34
61906;BME280;47863;55.766;37.672;2023-05-23T03:52:42;100250.03;;;16.55;64.08
61906;BME280;47863;55.766;37.672;2023-05-23T03:55:08;100214.19;;;16.53;63.88
61906;BME280;47863;55.766;37.672;2023-05-23T03:57:33;100244.00;;;16.74;63.81
61906;BME280;47863;55.766;37.672;2023-05-23T03:59:59;100242.25;;;16.81;63.69
61906;BME280;47863;55.766;37.672;2023-05-23T04:02:24;100241.66;;;16.86;63.51
61906;BME280;47863;55.766;37.672;2023-05-23T04:04:50;100222.44;;;16.81;63.42
61906;BME280;47863;55.766;37.672;2023-05-23T04:07:15;100242.94;;;16.90;63.33
61906;BME280;47863;55.766;37.672;2023-05-23T04:09:41;100249.59;;;16.88;63.08
61906;BME280;47863;55.766;37.672;2023-05-23T04:12:07;100244.94;;;16.81;63.30
61906;BME280;47863;55.766;37.672;2023-05-23T04:14:33;100257.81;;;16.79;63.23
61906;BME280;47863;55.766;37.672;2023-05-23T04:16:59;100243.22;;;16.80;63.15
61906;BME280;47863;55.766;37.672;2023-05-23T04:19:25;100215.47;;;16.72;62.81
61906;BME280;47863;55.766;37.672;2023-05-23T04:21:51;100244.53;;;16.99;62.71
61906;BME280;47863;55.766;37.672;2023-05-23T04:24:16;100244.25;;;17.16;62.56
61906;BME280;47863;55.766;37.672;2023-05-23T04:26:42;100225.78;;;17.19;62.02
61906;BME280;47863;55.766;37.672;2023-05-23T04:29:07;100246.19;;;17.43;61.83
61906;BME280;47863;55.766;37.672;2023-05-23T04:31:33;100228.09;;;17.44;61.19
61906;BME280;47863;55.766;37.672;2023-05-23T04:33:59;100187.53;;;17.29;61.06
61906;BME280;47863;55.766;37.672;2023-05-23T04:36:25;100232.22;;;17.68;61.14
61906;BME280;47863;55.766;37.672;2023-05-23T04:38:50;100233.84;;;17.84;60.91
61906;BME280;47863;55.766;37.672;2023-05-23T04:41:16;100241.06;;;18.05;60.77
61906;BME280;47863;55.766;37.672;2023-05-23T04:43:47;100241.19;;;18.25;60.42
61906;BME280;47863;55.766;37.672;2023-05-23T04:46:19;100218.44;;;18.26;60.10
61906;BME280;47863;55.766;37.672;2023-05-23T04:48:51;100241.91;;;18.40;60.00
61906;BME280;47863;55.766;37.672;2023-05-23T04:51:18;100226.19;;;18.29;59.90
61906;BME280;47863;55.766;37.672;2023-05-23T04:53:47;100236.06;;;18.43;59.93
61906;BME280;47863;55.766;37.672;2023-05-23T04:56:12;100237.75;;;18.51;59.62
61906;BME280;47863;55.766;37.672;2023-05-23T04:58:38;100245.72;;;18.59;59.45
61906;BME280;47863;55.766;37.672;2023-05-23T05:01:06;100248.44;;;18.59;59.55
61906;BME280;47863;55.766;37.672;2023-05-23T05:03:34;100244.22;;;18.50;59.39
61906;BME280;47863;55.766;37.672;2023-05-23T05:05:59;100260.09;;;18.60;59.37
61906;BME280;47863;55.766;37.672;2023-05-23T05:08:26;100271.78;;;18.54;59.28
61906;BME280;47863;55.766;37.672;2023-05-23T05:10:55;100274.38;;;18.34;59.24
61906;BME280;47863;55.766;37.672;2023-05-23T05:13:21;100251.63;;;17.93;58.78
61906;BME280;47863;55.766;37.672;2023-05-23T05:15:47;100270.91;;;18.05;58.82
61906;BME280;47863;55.766;37.672;2023-05-23T05:18:12;100281.59;;;18.20;58.73
61906;BME280;47863;55.766;37.672;2023-05-23T05:20:38;100272.28;;;18.29;58.58
61906;BME280;47863;55.766;37.672;2023-05-23T05:23:04;100284.03;;;18.43;58.42
61906;BME280;47863;55.766;37.672;2023-05-23T05:25:29;100280.97;;;18.53;58.35
61906;BME280;47863;55.766;37.672;2023-05-23T05:28:01;100272.66;;;18.61;58.12
61906;BME280;47863;55.766;37.672;2023-05-23T05:30:33;100262.63;;;18.61;58.10
61906;BME280;47863;55.766;37.672;2023-05-23T05:33:02;100264.25;;;18.49;57.47
61906;BME280;47863;55.766;37.672;2023-05-23T05:35:30;100258.28;;;18.26;58.15
61906;BME280;47863;55.766;37.672;2023-05-23T05:37:57;100262.03;;;18.24;58.26
61906;BME280;47863;55.766;37.672;2023-05-23T05:40:23;100247.53;;;18.11;58.18
61906;BME280;47863;55.766;37.672;2023-05-23T05:42:48;100265.19;;;18.28;58.18
61906;BME280;47863;55.766;37.672;2023-05-23T05:45:14;100260.88;;;18.40;58.02
61906;BME280;47863;55.766;37.672;2023-05-23T05:47:39;100254.22;;;18.50;57.62
61906;BME280;47863;55.766;37.672;2023-05-23T05:50:06;100258.22;;;18.54;57.65
61906;BME280;47863;55.766;37.672;2023-05-23T05:52:33;100259.72;;;18.70;57.46
61906;BME280;47863;55.766;37.672;2023-05-23T05:55:07;100245.34;;;18.76;57.26
61906;BME280;47863;55.766;37.672;2023-05-23T05:57:33;100258.59;;;18.92;57.29
61906;BME280;47863;55.766;37.672;2023-05-23T05:59:58;100256.97;;;19.05;57.15
61906;BME280;47863;55.766;37.672;2023-05-23T06:02:24;100250.06;;;19.15;56.87
61906;BME280;47863;55.766;37.672;2023-05-23T06:04:50;100230.00;;;19.03;56.82
61906;BME280;47863;55.766;37.672;2023-05-23T06:07:16;100225.63;;;19.09;56.94
61906;BME280;47863;55.766;37.672;2023-05-23T06:09:42;100250.31;;;19.20;56.97
61906;BME280;47863;55.766;37.672;2023-05-23T06:12:07;100247.38;;;19.15;56.97
61906;BME280;47863;55.766;37.672;2023-05-23T06:14:33;100243.63;;;19.10;57.11
61906;BME280;47863;55.766;37.672;2023-05-23T06:16:59;100238.19;;;19.10;57.19
61906;BME280;47863;55.766;37.672;2023-05-23T06:19:24;100216.88;;;19.00;56.88
61906;BME280;47863;55.766;37.672;2023-05-23T06:21:50;100231.06;;;19.15;56.23
61906;BME280;47863;55.766;37.672;2023-05-23T06:24:15;100226.50;;;19.22;56.42
61906;BME280;47863;55.766;37.672;2023-05-23T06:26:41;100219.81;;;19.38;56.20
61906;BME280;47863;55.766;37.672;2023-05-23T06:29:07;100220.22;;;19.69;55.89
61906;BME280;47863;55.766;37.672;2023-05-23T06:31:32;100221.06;;;19.96;55.45
61906;BME280;47863;55.766;37.672;2023-05-23T06:33:58;100204.47;;;20.24;55.07
61906;BME280;47863;55.766;37.672;2023-05-23T06:36:23;100193.44;;;20.57;54.42
61906;BME280;47863;55.766;37.672;2023-05-23T06:38:49;100159.69;;;20.72;53.84
61906;BME280;47863;55.766;37.672;2023-05-23T06:41:14;100211.50;;;21.22;53.33
61906;BME280;47863;55.766;37.672;2023-05-23T06:43:40;100200.00;;;21.20;52.82
61906;BME280;47863;55.766;37.672;2023-05-23T06:46:06;100190.06;;;21.07;53.41
61906;BME280;47863;55.766;37.672;2023-05-23T06:48:31;100203.13;;;21.24;53.58
61906;BME280;47863;55.766;37.672;2023-05-23T06:50:57;100184.31;;;21.15;53.27
61906;BME280;47863;55.766;37.672;2023-05-23T06:53:22;100206.72;;;21.49;52.97
61906;BME280;47863;55.766;37.672;2023-05-23T06:55:48;100208.75;;;21.79;52.55
61906;BME280;47863;55.766;37.672;2023-05-23T06:58:14;100202.72;;;22.14;52.21
61906;BME280;47863;55.766;37.672;2023-05-23T07:00:39;100197.91;;;22.65;51.12
61906;BME280;47863;55.766;37.672;2023-05-23T07:03:05;100187.75;;;23.02;50.40
61906;BME280;47863;55.766;37.672;2023-05-23T07:05:31;100175.22;;;23.25;49.84
61906;BME280;47863;55.766;37.672;2023-05-23T07:07:58;100194.16;;;23.85;49.21
61906;BME280;47863;55.766;37.672;2023-05-23T07:10:24;100182.75;;;24.81;48.33
61906;BME280;47863;55.766;37.672;2023-05-23T07:12:50;100190.97;;;25.61;47.42
61906;BME280;47863;55.766;37.672;2023-05-23T07:15:16;100185.16;;;26.35;46.22
61906;BME280;47863;55.766;37.672;2023-05-23T07:17:42;100180.44;;;27.07;45.64
61906;BME280;47863;55.766;37.672;2023-05-23T07:20:09;100178.13;;;27.91;44.98
61906;BME280;47863;55.766;37.672;2023-05-23T07:22:35;100169.31;;;28.52;44.31
61906;BME280;47863;55.766;37.672;2023-05-23T07:25:01;100165.78;;;28.87;44.14
61906;BME280;47863;55.766;37.672;2023-05-23T07:27:27;100181.03;;;29.15;42.47
61906;BME280;47863;55.766;37.672;2023-05-23T07:29:53;100187.38;;;29.46;41.88
61906;BME280;47863;55.766;37.672;2023-05-23T07:32:19;100182.13;;;29.45;42.11
61906;BME280;47863;55.766;37.672;2023-05-23T07:34:44;100192.84;;;29.11;42.32
61906;BME280;47863;55.766;37.672;2023-05-23T07:37:10;100184.78;;;28.73;42.54
61906;BME280;47863;55.766;37.672;2023-05-23T07:39:36;100185.44;;;28.27;42.96
61906;BME280;47863;55.766;37.672;2023-05-23T07:42:02;100166.44;;;27.78;42.77
61906;BME280;47863;55.766;37.672;2023-05-23T07:44:28;100178.56;;;27.77;42.65
61906;BME280;47863;55.766;37.672;2023-05-23T07:46:53;100169.69;;;27.70;42.06
61906;BME280;47863;55.766;37.672;2023-05-23T07:49:19;100193.09;;;28.15;41.97
61906;BME280;47863;55.766;37.672;2023-05-23T07:51:45;100201.28;;;28.63;40.77
61906;BME280;47863;55.766;37.672;2023-05-23T07:54:11;100192.81;;;28.85;40.16
61906;BME280;47863;55.766;37.672;2023-05-23T07:56:36;100206.97;;;29.35;39.73
61906;BME280;47863;55.766;37.672;2023-05-23T07:59:05;100201.13;;;29.98;39.30
61906;BME280;47863;55.766;37.672;2023-05-23T08:01:32;100210.28;;;30.58;38.25
61906;BME280;47863;55.766;37.672;2023-05-23T08:03:58;100214.06;;;30.78;38.00
61906;BME280;47863;55.766;37.672;2023-05-23T08:06:24;100205.78;;;30.73;38.67
61906;BME280;47863;55.766;37.672;2023-05-23T08:08:50;100195.75;;;30.27;38.66
61906;BME280;47863;55.766;37.672;2023-05-23T08:11:15;100205.84;;;29.66;39.15
61906;BME280;47863;55.766;37.672;2023-05-23T08:13:41;100205.03;;;29.25;39.83
61906;BME280;47863;55.766;37.672;2023-05-23T08:16:07;100196.63;;;28.68;37.92
61906;BME280;47863;55.766;37.672;2023-05-23T08:18:32;100180.41;;;28.77;38.03
61906;BME280;47863;55.766;37.672;2023-05-23T08:20:58;100195.09;;;29.24;37.69
61906;BME280;47863;55.766;37.672;2023-05-23T08:23:23;100199.22;;;29.47;36.96
61906;BME280;47863;55.766;37.672;2023-05-23T08:25:51;100200.63;;;29.29;36.15
61906;BME280;47863;55.766;37.672;2023-05-23T08:28:17;100194.22;;;29.03;36.82
61906;BME280;47863;55.766;37.672;2023-05-23T08:30:42;100175.75;;;29.03;37.01
61906;BME280;47863;55.766;37.672;2023-05-23T08:33:08;100202.28;;;29.25;37.06
61906;BME280;47863;55.766;37.672;2023-05-23T08:35:34;100201.72;;;29.43;36.77
61906;BME280;47863;55.766;37.672;2023-05-23T08:38:05;100175.72;;;29.96;34.99
61906;BME280;47863;55.766;37.672;2023-05-23T08:40:33;100203.13;;;30.57;35.51
61906;BME280;47863;55.766;37.672;2023-05-23T08:42:58;100198.75;;;30.41;35.26
61906;BME280;47863;55.766;37.672;2023-05-23T08:45:24;100201.34;;;30.12;35.88
61906;BME280;47863;55.766;37.672;2023-05-23T08:47:51;100194.81;;;29.51;36.43
61906;BME280;47863;55.766;37.672;2023-05-23T08:50:17;100193.06;;;28.73;36.75
61906;BME280;47863;55.766;37.672;2023-05-23T08:52:49;100197.56;;;28.26;37.45
61906;BME280;47863;55.766;37.672;2023-05-23T08:55:18;100201.56;;;28.03;37.54
61906;BME280;47863;55.766;37.672;2023-05-23T08:57:44;100184.91;;;27.83;37.94
61906;BME280;47863;55.766;37.672;2023-05-23T09:00:14;100180.88;;;27.53;37.92
61906;BME280;47863;55.766;37.672;2023-05-23T09:02:44;100194.47;;;27.05;38.59
61906;BME280;47863;55.766;37.672;2023-05-23T09:05:13;100199.34;;;26.49;39.30
61906;BME280;47863;55.766;37.672;2023-05-23T09:07:39;100187.22;;;26.01;40.15
61906;BME280;47863;55.766;37.672;2023-05-23T09:10:07;100196.56;;;25.66;40.34
61906;BME280;47863;55.766;37.672;2023-05-23T09:12:34;100201.06;;;25.38;40.70
61906;BME280;47863;55.766;37.672;2023-05-23T09:15:02;100201.19;;;25.31;41.11
61906;BME280;47863;55.766;37.672;2023-05-23T09:17:31;100200.53;;;25.24;40.89
61906;BME280;47863;55.766;37.672;2023-05-23T09:19:58;100210.75;;;25.29;40.95
61906;BME280;47863;55.766;37.672;2023-05-23T09:22:25;100194.53;;;25.10;41.21
61906;BME280;47863;55.766;37.672;2023-05-23T09:24:52;100218.84;;;25.07;41.33
61906;BME280;47863;55.766;37.672;2023-05-23T09:27:18;100205.13;;;24.49;42.04
61906;BME280;47863;55.766;37.672;2023-05-23T09:29:43;100229.22;;;24.24;42.58
61906;BME280;47863;55.766;37.672;2023-05-23T09:32:18;100233.88;;;23.76;43.55
61906;BME280;47863;55.766;37.672;2023-05-23T09:34:58;100206.97;;;23.38;43.58
61906;BME280;47863;55.766;37.672;2023-05-23T09:37:44;100238.09;;;23.25;44.07
61906;BME280;47863;55.766;37.672;2023-05-23T09:40:12;100231.13;;;23.10;44.73
61906;BME280;47863;55.766;37.672;2023-05-23T09:42:45;100228.59;;;22.78;45.68
61906;BME280;47863;55.766;37.672;2023-05-23T09:45:13;100226.31;;;22.64;45.73
61906;BME280;47863;55.766;37.672;2023-05-23T09:47:38;100242.47;;;22.47;45.92
61906;BME280;47863;55.766;37.672;2023-05-23T09:50:05;100227.03;;;22.15;46.22
61906;BME280;47863;55.766;37.672;2023-05-23T09:52:35;100221.75;;;22.02;47.60
61906;BME280;47863;55.766;37.672;2023-05-23T09:55:03;100203.09;;;21.81;46.94
61906;BME280;47863;55.766;37.672;2023-05-23T09:57:34;100230.50;;;21.86;46.78
61906;BME280;47863;55.766;37.672;2023-05-23T10:00:03;100239.56;;;21.79;46.95
61906;BME280;47863;55.766;37.672;2023-05-23T10:05:08;100232.16;;;21.68;47.54
61906;BME280;47863;55.766;37.672;2023-05-23T10:07:37;100237.63;;;21.62;47.32
61906;BME280;47863;55.766;37.672;2023-05-23T10:10:04;100235.59;;;21.57;47.84
61906;BME280;47863;55.766;37.672;2023-05-23T10:12:46;100220.56;;;21.48;47.99
61906;BME280;47863;55.766;37.672;2023-05-23T10:15:15;100238.09;;;21.58;48.10
61906;BME280;47863;55.766;37.672;2023-05-23T10:17:51;100227.81;;;21.61;47.90
61906;BME280;47863;55.766;37.672;2023-05-23T10:20:21;100234.53;;;21.58;49.05
61906;BME280;47863;55.766;37.672;2023-05-23T10:22:49;100214.34;;;21.34;49.28
61906;BME280;47863;55.766;37.672;2023-05-23T10:25:15;100225.22;;;21.41;49.31
61906;BME280;47863;55.766;37.672;2023-05-23T10:27:42;100235.25;;;21.40;49.15
61906;BME280;47863;55.766;37.672;2023-05-23T10:30:08;100176.69;;;20.99;50.84
61906;BME280;47863;55.766;37.672;2023-05-23T10:32:35;100210.97;;;21.07;50.71
61906;BME280;47863;55.766;37.672;2023-05-23T10:35:24;100229.44;;;21.05;50.72
61906;BME280;47863;55.766;37.672;2023-05-23T10:38:00;100240.38;;;20.98;50.69
61906;BME280;47863;55.766;37.672;2023-05-23T10:45:50;100199.66;;;20.26;51.62
61906;BME280;47863;55.766;37.672;2023-05-23T10:48:22;100242.91;;;20.41;52.28
61906;BME280;47863;55.766;37.672;2023-05-23T10:51:11;100200.31;;;20.08;52.27
61906;BME280;47863;55.766;37.672;2023-05-23T10:53:38;100211.44;;;20.00;52.79
61906;BME280;47863;55.766;37.672;2023-05-23T10:56:09;100237.75;;;20.06;53.62
61906;BME280;47863;55.766;37.672;2023-05-23T10:58:37;100226.09;;;19.86;53.80
61906;BME280;47863;55.766;37.672;2023-05-23T11:01:07;100243.69;;;19.83;54.47
61906;BME280;47863;55.766;37.672;2023-05-23T11:09:16;100230.91;;;19.24;54.61
61906;BME280;47863;55.766;37.672;2023-05-23T11:14:30;100237.97;;;19.05;55.26
61906;BME280;47863;55.766;37.672;2023-05-23T11:17:14;100227.06;;;18.85;55.44
61906;BME280;47863;55.766;37.672;2023-05-23T11:20:05;100243.69;;;18.75;56.12
61906;BME280;47863;55.766;37.672;2023-05-23T11:22:35;100217.31;;;18.55;56.15
61906;BME280;47863;55.766;37.672;2023-05-23T11:25:06;100243.84;;;18.60;56.83
61906;BME280;47863;55.766;37.672;2023-05-23T11:27:37;100236.72;;;18.52;56.25
61906;BME280;47863;55.766;37.672;2023-05-23T11:32:38;100250.88;;;18.48;56.80
61906;BME280;47863;55.766;37.672;2023-05-23T11:35:11;100243.56;;;18.41;57.19
61906;BME280;47863;55.766;37.672;2023-05-23T11:37:37;100255.47;;;18.40;56.94
61906;BME280;47863;55.766;37.672;2023-05-23T11:42:54;100232.31;;;18.45;56.93
61906;BME280;47863;55.766;37.672;2023-05-23T11:45:21;100232.56;;;18.56;57.08
61906;BME280;47863;55.766;37.672;2023-05-23T11:47:47;100248.34;;;18.88;57.13
61906;BME280;47863;55.766;37.672;2023-05-23T11:50:13;100254.69;;;19.08;57.05
61906;BME280;47863;55.766;37.672;2023-05-23T11:52:39;100245.31;;;19.31;56.69
61906;BME280;47863;55.766;37.672;2023-05-23T11:55:06;100239.47;;;19.54;56.57
61906;BME280;47863;55.766;37.672;2023-05-23T11:57:31;100232.41;;;19.73;55.92
61906;BME280;47863;55.766;37.672;2023-05-23T11:59:57;100209.56;;;19.80;55.99
61906;BME280;47863;55.766;37.672;2023-05-23T12:02:26;100239.44;;;20.14;55.94
61906;BME280;47863;55.766;37.672;2023-05-23T12:04:52;100228.16;;;20.04;55.99
61906;BME280;47863;55.766;37.672;2023-05-23T12:07:18;100236.09;;;20.05;56.13
61906;BME280;47863;55.766;37.672;2023-05-23T12:09:45;100229.44;;;20.01;56.49
61906;BME280;47863;55.766;37.672;2023-05-23T12:12:11;100229.44;;;20.01;56.60
61906;BME280;47863;55.766;37.672;2023-05-23T12:14:37;100223.97;;;19.94;56.74
61906;BME280;47863;55.766;37.672;2023-05-23T12:17:12;100226.09;;;19.99;56.94
61906;BME280;47863;55.766;37.672;2023-05-23T12:19:38;100209.13;;;20.04;56.88
61906;BME280;47863;55.766;37.672;2023-05-23T12:22:05;100214.94;;;20.14;56.92
61906;BME280;47863;55.766;37.672;2023-05-23T12:24:34;100208.03;;;20.18;57.08
61906;BME280;47863;55.766;37.672;2023-05-23T12:27:01;100205.31;;;20.25;56.65
61906;BME280;47863;55.766;37.672;2023-05-23T12:29:32;100199.88;;;20.25;57.40
61906;BME280;47863;55.766;37.672;2023-05-23T12:31:59;100201.50;;;20.32;57.11
61906;BME280;47863;55.766;37.672;2023-05-23T12:34:25;100197.25;;;20.50;57.14
61906;BME280;47863;55.766;37.672;2023-05-23T12:36:55;100155.56;;;20.56;57.13
61906;BME280;47863;55.766;37.672;2023-05-23T12:39:26;100182.53;;;21.03;56.74
61906;BME280;47863;55.766;37.672;2023-05-23T12:41:52;100174.69;;;21.38;55.96
61906;BME280;47863;55.766;37.672;2023-05-23T12:44:20;100184.22;;;21.79;55.42
61906;BME280;47863;55.766;37.672;2023-05-23T12:46:46;100146.34;;;21.89;55.12
61906;BME280;47863;55.766;37.672;2023-05-23T12:49:12;100170.50;;;22.23;54.98
61906;BME280;47863;55.766;37.672;2023-05-23T12:51:39;100179.50;;;22.30;54.83
61906;BME280;47863;55.766;37.672;2023-05-23T12:54:07;100158.09;;;22.27;55.18
61906;BME280;47863;55.766;37.672;2023-05-23T12:56:32;100157.19;;;22.33;55.06
61906;BME280;47863;55.766;37.672;2023-05-23T12:58:58;100163.22;;;22.53;54.49
61906;BME280;47863;55.766;37.672;2023-05-23T13:01:26;100161.47;;;22.59;54.28
61906;BME280;47863;55.766;37.672;2023-05-23T13:03:52;100160.66;;;22.70;54.44
61906;BME280;47863;55.766;37.672;2023-05-23T13:06:17;100159.53;;;22.90;54.21
61906;BME280;47863;55.766;37.672;2023-05-23T13:08:43;100133.13;;;23.02;53.88